createdAt,value
2019-05-10T00:00:22.897Z,2.50
2019-05-10T00:03:10.888Z,3.03
2019-05-10T00:05:58.775Z,2.63
2019-05-10T00:08:46.558Z,2.50
2019-05-10T00:11:36.995Z,2.40
2019-05-10T00:14:11.309Z,2.37
2019-05-10T00:16:40.935Z,2.57
2019-05-10T00:19:10.618Z,2.30
2019-05-10T00:21:41.860Z,2.80
2019-05-10T00:24:11.631Z,2.30
2019-05-10T00:26:41.294Z,2.70
2019-05-10T00:29:11.087Z,1.90
2019-05-10T00:31:42.354Z,2.00
2019-05-10T00:34:12.143Z,2.30
2019-05-10T00:36:42.008Z,2.23
2019-05-10T00:39:11.524Z,2.40
2019-05-10T00:41:41.178Z,2.00
2019-05-10T00:44:12.249Z,2.20
2019-05-10T00:46:41.934Z,2.17
2019-05-10T00:49:11.735Z,2.00
2019-05-10T00:51:41.355Z,1.90
2019-05-10T00:54:11.037Z,2.00
2019-05-10T00:56:40.746Z,2.50
2019-05-10T00:59:10.421Z,2.13
2019-05-10T01:01:40.152Z,2.30
2019-05-10T01:04:09.933Z,2.60
2019-05-10T01:06:39.689Z,2.90
2019-05-10T01:09:09.404Z,3.30
2019-05-10T01:11:39.063Z,3.03
2019-05-10T01:14:10.539Z,3.67
2019-05-10T01:16:41.049Z,3.40
2019-05-10T01:19:10.681Z,3.50
2019-05-10T01:21:40.487Z,3.50
2019-05-10T01:24:10.220Z,2.93
2019-05-10T01:26:39.989Z,3.30
2019-05-10T01:29:09.797Z,3.30
2019-05-10T01:31:39.571Z,2.80
2019-05-10T01:34:09.275Z,3.07
2019-05-10T01:36:38.911Z,3.40
2019-05-10T01:39:08.718Z,3.03
2019-05-10T01:41:38.442Z,3.10
2019-05-10T01:44:08.035Z,3.00
2019-05-10T01:46:37.815Z,3.63
2019-05-10T01:49:07.668Z,3.00
2019-05-10T01:51:37.433Z,3.07
2019-05-10T01:54:07.128Z,2.60
2019-05-10T01:56:36.820Z,3.20
2019-05-10T01:59:06.454Z,2.53
2019-05-10T02:01:36.178Z,2.70
2019-05-10T02:04:05.845Z,2.80
2019-05-10T02:06:35.613Z,2.77
2019-05-10T02:09:06.654Z,2.63
2019-05-10T02:11:36.447Z,2.60
2019-05-10T02:14:08.129Z,2.50
2019-05-10T02:16:38.454Z,2.97
2019-05-10T02:19:08.084Z,2.43
2019-05-10T02:21:37.750Z,3.10
2019-05-10T02:24:07.363Z,3.10
2019-05-10T02:26:37.179Z,2.93
2019-05-10T02:29:07.020Z,2.90
2019-05-10T02:31:37.542Z,3.10
2019-05-10T02:34:07.252Z,2.90
2019-05-10T02:36:37.145Z,2.80
2019-05-10T02:39:08.101Z,3.20
2019-05-10T02:41:39.381Z,2.83
2019-05-10T02:44:09.773Z,2.40
2019-05-10T02:46:39.571Z,2.80
2019-05-10T02:49:09.417Z,3.10
2019-05-10T02:51:39.532Z,2.97
2019-05-10T02:54:09.192Z,3.23
2019-05-10T02:56:39.238Z,3.10
2019-05-10T02:59:09.561Z,3.33
2019-05-10T03:01:40.719Z,2.97
2019-05-10T03:04:11.277Z,3.80
2019-05-10T03:06:42.323Z,3.50
2019-05-10T03:09:14.629Z,3.70
2019-05-10T03:11:48.329Z,3.70
2019-05-10T03:14:18.594Z,3.97
2019-05-10T03:16:50.918Z,3.80
2019-05-10T03:19:21.064Z,3.43
2019-05-10T03:21:58.569Z,3.60
2019-05-10T03:24:29.608Z,3.83
2019-05-10T03:26:59.304Z,3.33
2019-05-10T03:29:29.049Z,3.47
2019-05-10T03:31:58.877Z,3.90
2019-05-10T03:34:28.722Z,3.63
2019-05-10T03:36:58.536Z,4.00
2019-05-10T03:39:29.055Z,3.90
2019-05-10T03:41:59.899Z,3.83
2019-05-10T03:44:34.535Z,3.90
2019-05-10T03:47:04.248Z,5.10
2019-05-10T03:49:34.018Z,3.97
2019-05-10T03:52:05.235Z,3.80
2019-05-10T03:54:36.054Z,4.57
2019-05-10T03:57:14.357Z,4.00
2019-05-10T03:59:40.722Z,4.40
2019-05-10T04:02:11.823Z,4.70
2019-05-10T04:04:41.686Z,5.50
2019-05-10T04:07:13.547Z,5.90
2019-05-10T04:09:45.701Z,9.37
2019-05-10T04:12:15.470Z,10.37
2019-05-10T04:14:46.459Z,5.60
2019-05-10T04:17:19.300Z,6.57
2019-05-10T04:19:49.038Z,6.80
2019-05-10T04:22:19.062Z,7.47
2019-05-10T04:24:48.823Z,8.33
2019-05-10T04:27:31.786Z,8.67
2019-05-10T04:29:49.960Z,9.13
2019-05-10T04:32:19.654Z,9.63
2019-05-10T04:34:49.399Z,7.93
2019-05-10T04:37:19.099Z,16.63
2019-05-10T04:39:48.878Z,18.60
2019-05-10T04:42:18.584Z,21.10
2019-05-10T04:44:52.901Z,16.93
2019-05-10T04:47:19.866Z,16.43
2019-05-10T04:49:49.597Z,17.43
2019-05-10T04:52:19.400Z,13.97
2019-05-10T04:54:49.190Z,16.20
2019-05-10T04:57:22.086Z,17.60
2019-05-10T04:59:51.587Z,19.90
2019-05-10T05:02:22.324Z,15.87
2019-05-10T05:04:52.349Z,10.50
2019-05-10T05:07:21.876Z,9.97
2019-05-10T05:09:51.270Z,11.15
2019-05-10T05:12:20.791Z,11.85
2019-05-10T05:14:50.303Z,12.63
2019-05-10T05:17:19.778Z,11.37
2019-05-10T05:19:49.463Z,11.37
2019-05-10T05:22:18.911Z,13.17
2019-05-10T05:24:48.411Z,12.90
2019-05-10T05:27:17.915Z,14.23
2019-05-10T05:29:47.380Z,14.50
2019-05-10T05:32:16.816Z,13.03
2019-05-10T05:34:46.221Z,16.40
2019-05-10T05:37:15.643Z,20.45
2019-05-10T05:39:45.198Z,22.03
2019-05-10T05:42:14.677Z,25.77
2019-05-10T05:44:44.175Z,26.23
2019-05-10T05:47:13.599Z,26.27
2019-05-10T05:49:43.080Z,28.07
2019-05-10T05:52:12.509Z,26.63
2019-05-10T05:54:42.051Z,29.00
2019-05-10T05:57:11.511Z,32.07
2019-05-10T05:59:41.013Z,31.50
2019-05-10T06:02:10.501Z,31.80
2019-05-10T06:04:40.921Z,29.33
2019-05-10T06:07:11.125Z,32.90
2019-05-10T06:09:40.567Z,31.13
2019-05-10T06:12:12.739Z,30.43
2019-05-10T06:14:43.423Z,31.70
2019-05-10T06:17:12.321Z,32.33
2019-05-10T06:19:41.839Z,34.87
2019-05-10T06:22:11.402Z,34.13
2019-05-10T06:24:40.910Z,31.47
2019-05-10T06:27:10.496Z,32.93
2019-05-10T06:29:43.195Z,34.17
2019-05-10T06:32:13.392Z,30.73
2019-05-10T06:34:43.342Z,35.17
2019-05-10T06:37:12.966Z,32.63
2019-05-10T06:39:42.553Z,30.60
2019-05-10T06:42:13.763Z,33.03
2019-05-10T06:44:43.327Z,31.63
2019-05-10T06:47:12.854Z,31.23
2019-05-10T06:49:50.391Z,30.97
2019-05-10T06:52:16.281Z,31.17
2019-05-10T06:54:44.643Z,30.00
2019-05-10T06:57:17.565Z,30.70
2019-05-10T06:59:45.194Z,31.77
2019-05-10T07:02:14.695Z,32.13
2019-05-10T07:04:44.269Z,31.57
2019-05-10T07:07:22.107Z,32.23
2019-05-10T07:10:04.236Z,30.23
2019-05-10T07:12:18.435Z,29.37
2019-05-10T07:14:47.324Z,29.57
2019-05-10T07:17:17.552Z,29.80
2019-05-10T07:19:53.467Z,28.30
2019-05-10T07:22:21.823Z,29.97
2019-05-10T07:24:49.263Z,29.60
2019-05-10T07:27:18.722Z,27.93
2019-05-10T07:29:49.345Z,28.93
2019-05-10T07:32:32.627Z,30.07
2019-05-10T07:35:03.886Z,27.67
2019-05-10T07:37:33.455Z,27.20
2019-05-10T07:40:03.754Z,26.87
2019-05-10T07:42:33.420Z,25.47
2019-05-10T07:45:03.059Z,26.27
2019-05-10T07:47:32.752Z,26.17
2019-05-10T07:50:03.941Z,26.10
2019-05-10T07:52:36.410Z,26.57
2019-05-10T07:55:06.071Z,26.07
2019-05-10T07:57:35.610Z,26.30
2019-05-10T08:00:06.213Z,26.77
2019-05-10T08:02:36.058Z,24.90
2019-05-10T08:05:11.087Z,24.70
2019-05-10T08:07:38.662Z,25.77
2019-05-10T08:10:09.016Z,25.20
2019-05-10T08:12:41.455Z,25.67
2019-05-10T08:15:09.931Z,24.70
2019-05-10T08:17:43.127Z,22.97
2019-05-10T08:20:22.099Z,23.77
2019-05-10T08:22:45.950Z,23.33
2019-05-10T08:25:15.347Z,23.03
2019-05-10T08:27:50.693Z,23.97
2019-05-10T08:30:25.469Z,26.03
2019-05-10T08:32:48.081Z,22.87
2019-05-10T08:35:18.852Z,22.37
2019-05-10T08:37:48.509Z,29.90
2019-05-10T08:40:37.455Z,23.43
2019-05-10T08:43:07.401Z,24.57
2019-05-10T08:45:38.739Z,24.35
2019-05-10T08:48:07.155Z,20.90
2019-05-10T08:50:49.379Z,20.37
2019-05-10T08:53:10.855Z,19.07
2019-05-10T08:55:39.261Z,18.93
2019-05-10T08:58:08.756Z,18.80
2019-05-10T09:00:53.357Z,18.53
2019-05-10T09:03:18.003Z,18.53
2019-05-10T09:05:43.269Z,19.50
2019-05-10T09:08:19.522Z,17.63
2019-05-10T09:10:44.049Z,18.50
2019-05-10T09:13:13.707Z,18.17
2019-05-10T09:15:51.400Z,19.83
2019-05-10T09:18:14.302Z,18.67
2019-05-10T09:20:43.802Z,17.97
2019-05-10T09:23:19.879Z,17.05
2019-05-10T09:25:45.640Z,18.20
2019-05-10T09:28:17.028Z,16.17
2019-05-10T09:30:57.554Z,16.13
2019-05-10T09:33:17.582Z,16.30
2019-05-10T09:35:51.759Z,15.97
2019-05-10T09:38:19.326Z,14.90
2019-05-10T09:40:52.793Z,16.10
2019-05-10T09:43:23.605Z,14.65
2019-05-10T09:45:53.012Z,16.62
2019-05-10T09:48:22.793Z,18.12
2019-05-10T09:50:55.906Z,15.35
2019-05-10T09:53:26.777Z,14.43
2019-05-10T09:56:01.743Z,16.20
2019-05-10T09:58:28.531Z,15.67
2019-05-10T10:01:12.755Z,15.33
2019-05-10T10:03:30.100Z,14.97
2019-05-10T10:06:05.173Z,13.90
2019-05-10T10:08:30.907Z,14.20
2019-05-10T10:11:10.352Z,14.43
2019-05-10T10:13:40.164Z,18.67
2019-05-10T10:16:12.615Z,14.23
2019-05-10T10:18:37.219Z,14.63
2019-05-10T10:21:07.020Z,15.50
2019-05-10T10:23:37.749Z,13.73
2019-05-10T10:26:07.582Z,13.80
2019-05-10T10:28:39.486Z,14.20
2019-05-10T10:31:08.610Z,15.78
2019-05-10T10:33:38.336Z,15.60
2019-05-10T10:36:10.611Z,13.85
2019-05-10T10:38:45.227Z,11.77
2019-05-10T10:41:10.144Z,13.25
2019-05-10T10:43:39.678Z,13.78
2019-05-10T10:46:12.488Z,14.23
2019-05-10T10:48:43.700Z,15.58
2019-05-10T10:51:11.575Z,16.55
2019-05-10T10:53:41.168Z,16.25
2019-05-10T10:56:10.773Z,17.23
2019-05-10T10:58:40.190Z,16.35
2019-05-10T11:01:19.941Z,15.35
2019-05-10T11:03:40.840Z,17.17
2019-05-10T11:06:11.023Z,16.57
2019-05-10T11:08:41.352Z,16.25
2019-05-10T11:11:10.897Z,16.00
2019-05-10T11:13:45.011Z,15.20
2019-05-10T11:16:15.736Z,14.13
2019-05-10T11:18:42.621Z,15.27
2019-05-10T11:21:12.152Z,14.10
2019-05-10T11:23:42.112Z,11.93
2019-05-10T11:26:11.810Z,12.70
2019-05-10T11:28:44.084Z,12.70
2019-05-10T11:31:12.482Z,13.10
2019-05-10T11:33:46.865Z,13.40
2019-05-10T11:36:13.067Z,12.00
2019-05-10T11:38:46.979Z,9.43
2019-05-10T11:41:21.274Z,10.55
2019-05-10T11:43:50.582Z,10.55
2019-05-10T11:46:21.006Z,10.75
2019-05-10T11:48:51.146Z,12.23
2019-05-10T11:51:21.214Z,11.73
2019-05-10T11:53:58.147Z,8.73
2019-05-10T11:58:55.544Z,6.75
2019-05-10T11:59:03.906Z,7.10
2019-05-10T12:01:25.472Z,6.37
2019-05-10T12:03:55.059Z,7.30
2019-05-10T12:06:24.642Z,9.57
2019-05-10T12:09:01.026Z,8.65
2019-05-10T12:11:33.599Z,8.73
2019-05-10T12:14:02.425Z,9.17
2019-05-10T12:16:33.452Z,9.40
2019-05-10T12:19:10.498Z,10.20
2019-05-10T12:21:33.393Z,8.23
2019-05-10T12:24:26.123Z,8.08
2019-05-10T12:29:12.396Z,8.58
2019-05-10T12:31:36.446Z,8.68
2019-05-10T12:34:09.314Z,7.77
2019-05-10T12:36:41.376Z,7.20
2019-05-10T12:39:11.840Z,8.13
2019-05-10T12:41:48.327Z,9.47
2019-05-10T12:44:12.527Z,8.07
2019-05-10T12:46:42.371Z,8.60
2019-05-10T12:49:12.095Z,7.37
2019-05-10T12:51:43.269Z,8.27
2019-05-10T12:54:12.820Z,7.70
2019-05-10T12:56:44.505Z,7.70
2019-05-10T12:59:13.731Z,6.40
2019-05-10T13:01:43.290Z,7.40
2019-05-10T13:04:14.924Z,6.77
2019-05-10T13:06:44.197Z,6.20
2019-05-10T13:09:16.535Z,5.70
2019-05-10T13:11:51.724Z,5.40
2019-05-10T13:14:23.198Z,6.80
2019-05-10T13:16:52.932Z,6.10
2019-05-10T13:19:22.549Z,6.50
2019-05-10T13:21:53.788Z,5.70
2019-05-10T13:24:23.581Z,7.83
2019-05-10T13:26:53.276Z,7.63
2019-05-10T13:29:22.883Z,7.20
2019-05-10T13:31:52.595Z,6.93
2019-05-10T13:34:24.463Z,7.30
2019-05-10T13:36:54.224Z,6.53
2019-05-10T13:39:25.524Z,6.43
2019-05-10T13:41:57.071Z,6.57
2019-05-10T13:44:27.246Z,6.37
2019-05-10T13:46:58.192Z,5.67
2019-05-10T13:49:27.955Z,6.70
2019-05-10T13:52:02.756Z,7.33
2019-05-10T13:54:36.141Z,8.00
2019-05-10T13:57:03.627Z,6.53
2019-05-10T13:59:33.245Z,7.07
2019-05-10T14:02:02.873Z,7.20
2019-05-10T14:04:38.060Z,6.03
2019-05-10T14:07:04.872Z,6.70
2019-05-10T14:09:34.439Z,6.40
2019-05-10T14:12:05.279Z,6.00
2019-05-10T14:14:34.991Z,5.67
2019-05-10T14:17:05.621Z,6.40
2019-05-10T14:19:36.307Z,6.60
2019-05-10T14:22:06.488Z,6.97
2019-05-10T14:24:37.248Z,7.47
2019-05-10T14:27:07.763Z,8.50
2019-05-10T14:29:37.512Z,7.77
2019-05-10T14:32:07.292Z,8.70
2019-05-10T14:34:43.915Z,7.67
2019-05-10T14:37:14.343Z,7.87
2019-05-10T14:39:43.699Z,7.40
2019-05-10T14:42:13.343Z,7.73
2019-05-10T14:44:42.929Z,7.80
2019-05-10T14:47:13.924Z,8.63
2019-05-10T14:49:46.942Z,8.10
2019-05-10T14:52:15.912Z,8.30
2019-05-10T14:54:49.949Z,7.90
2019-05-10T14:57:17.561Z,7.20
2019-05-10T14:59:47.202Z,7.57
2019-05-10T15:02:22.628Z,8.67
2019-05-10T15:04:50.604Z,8.77
2019-05-10T15:07:25.773Z,7.97
2019-05-10T15:10:00.289Z,10.90
2019-05-10T15:12:26.946Z,7.50
2019-05-10T15:14:56.519Z,7.13
2019-05-10T15:17:30.073Z,6.83
2019-05-10T15:20:00.624Z,6.10
2019-05-10T15:22:30.148Z,7.30
2019-05-10T15:24:59.999Z,6.50
2019-05-10T15:27:30.771Z,6.73
2019-05-10T15:30:05.373Z,6.73
2019-05-10T15:32:33.616Z,6.77
2019-05-10T15:35:07.175Z,5.93
2019-05-10T15:37:34.987Z,6.27
2019-05-10T15:40:07.879Z,5.77
2019-05-10T15:42:38.550Z,6.70
2019-05-10T15:45:12.194Z,5.70
2019-05-10T15:47:50.876Z,7.73
2019-05-10T15:50:11.830Z,5.37
2019-05-10T15:52:46.503Z,6.23
2019-05-10T15:55:16.538Z,6.63
2019-05-10T15:57:44.512Z,6.60
2019-05-10T16:00:14.350Z,6.97
2019-05-10T16:02:45.038Z,5.13
2019-05-10T16:05:24.113Z,8.03
2019-05-10T16:07:51.055Z,7.27
2019-05-10T16:10:17.369Z,6.77
2019-05-10T16:12:47.172Z,6.97
2019-05-10T16:15:21.276Z,6.63
2019-05-10T16:17:53.776Z,7.10
2019-05-10T16:20:20.534Z,6.10
2019-05-10T16:22:50.151Z,7.10
2019-05-10T16:25:19.793Z,6.80
2019-05-10T16:27:49.486Z,6.67
2019-05-10T16:30:20.359Z,6.27
2019-05-10T16:32:50.429Z,6.33
2019-05-10T16:35:22.065Z,5.80
2019-05-10T16:37:51.478Z,5.70
2019-05-10T16:40:21.144Z,5.97
2019-05-10T16:42:50.634Z,5.77
2019-05-10T16:45:20.268Z,5.70
2019-05-10T16:47:49.837Z,5.73
2019-05-10T16:50:19.498Z,6.10
2019-05-10T16:52:49.785Z,5.77
2019-05-10T16:55:19.457Z,6.27
2019-05-10T16:57:49.058Z,6.28
2019-05-10T17:00:19.310Z,6.70
2019-05-10T17:02:50.482Z,5.27
2019-05-10T17:05:20.440Z,5.43
2019-05-10T17:07:53.810Z,5.20
2019-05-10T17:10:32.911Z,5.53
2019-05-10T17:13:04.896Z,5.50
2019-05-10T17:15:33.890Z,6.03
2019-05-10T17:18:04.132Z,4.90
2019-05-10T17:20:33.723Z,5.40
2019-05-10T17:23:08.716Z,4.87
2019-05-10T17:25:42.396Z,5.43
2019-05-10T17:28:13.545Z,5.43
2019-05-10T17:30:46.243Z,5.67
2019-05-10T17:33:20.472Z,4.93
2019-05-10T17:36:07.210Z,6.07
2019-05-10T17:38:23.858Z,5.80
2019-05-10T17:40:54.669Z,5.97
2019-05-10T17:43:24.177Z,6.57
2019-05-10T17:45:54.646Z,6.80
2019-05-10T17:48:27.682Z,6.87
2019-05-10T17:50:57.232Z,8.03
2019-05-10T17:53:32.029Z,7.20
2019-05-10T17:56:03.341Z,7.00
2019-05-10T17:58:35.705Z,6.73
2019-05-10T18:01:17.583Z,7.03
2019-05-10T18:03:50.321Z,6.90
2019-05-10T18:06:24.136Z,7.50
2019-05-10T18:08:51.886Z,6.97
2019-05-10T18:11:23.774Z,7.73
2019-05-10T18:13:53.314Z,7.80
2019-05-10T18:16:24.711Z,7.30
2019-05-10T18:18:54.037Z,8.17
2019-05-10T18:21:24.229Z,8.03
2019-05-10T18:23:58.161Z,10.30
2019-05-10T18:26:25.080Z,10.20
2019-05-10T18:28:54.532Z,7.73
2019-05-10T18:31:23.968Z,7.43
2019-05-10T18:33:55.657Z,6.97
2019-05-10T18:36:41.003Z,8.73
2019-05-10T18:38:55.700Z,5.23
2019-05-10T18:41:25.290Z,4.70
2019-05-10T18:43:54.780Z,3.97
2019-05-10T18:46:27.657Z,4.53
2019-05-10T22:27:51.341Z,4.10
2019-05-10T22:30:21.879Z,4.20
2019-05-10T22:32:51.343Z,4.77
2019-05-10T22:35:20.932Z,3.80
2019-05-10T22:37:50.447Z,3.90
2019-05-10T22:40:19.924Z,3.60
2019-05-10T22:42:50.493Z,3.70
2019-05-10T22:45:19.972Z,3.10
2019-05-10T22:47:49.558Z,3.20
2019-05-10T22:50:19.289Z,3.53
2019-05-10T22:52:48.809Z,3.20
2019-05-10T22:55:18.306Z,3.33
2019-05-10T22:57:47.848Z,3.77
2019-05-10T23:00:17.513Z,3.30
2019-05-10T23:02:47.042Z,3.80
2019-05-10T23:05:16.571Z,3.80
2019-05-10T23:07:46.112Z,3.57
2019-05-10T23:10:15.618Z,3.37
2019-05-10T23:12:45.180Z,3.80
2019-05-10T23:15:14.759Z,2.43
2019-05-10T23:17:44.297Z,2.70
2019-05-10T23:20:13.838Z,3.00
2019-05-10T23:22:43.354Z,2.80
2019-05-10T23:25:12.843Z,2.70
2019-05-10T23:27:43.465Z,2.70
2019-05-10T23:30:13.071Z,2.90
2019-05-10T23:32:42.628Z,2.67
2019-05-10T23:35:12.120Z,2.83
2019-05-10T23:37:41.625Z,2.83
2019-05-10T23:40:11.403Z,2.70
2019-05-10T23:42:40.952Z,2.20
2019-05-10T23:45:10.569Z,2.73
2019-05-10T23:47:40.062Z,2.80
2019-05-10T23:50:09.744Z,2.33
2019-05-10T23:52:39.207Z,2.70
2019-05-10T23:55:08.821Z,2.30
2019-05-10T23:57:38.349Z,2.20
